sensor_id;sensor_type;location;lat;lon;timestamp;P1;durP1;ratioP1;P2;durP2;ratioP2
17943;SDS011;9097;47.028;15.444;2022-07-31T00:01:11;2.08;;;1.70;;
17943;SDS011;9097;47.028;15.444;2022-07-31T00:04:14;1.75;;;1.60;;
17943;SDS011;9097;47.028;15.444;2022-07-31T00:07:17;3.78;;;2.40;;
17943;SDS011;9097;47.028;15.444;2022-07-31T00:10:19;3.10;;;2.13;;
17943;SDS011;9097;47.028;15.444;2022-07-31T00:13:22;2.10;;;1.48;;
17943;SDS011;9097;47.028;15.444;2022-07-31T00:16:26;1.38;;;1.27;;
17943;SDS011;9097;47.028;15.444;2022-07-31T00:19:28;1.98;;;1.63;;
17943;SDS011;9097;47.028;15.444;2022-07-31T00:22:31;2.85;;;2.22;;
17943;SDS011;9097;47.028;15.444;2022-07-31T00:25:34;2.47;;;2.03;;
17943;SDS011;9097;47.028;15.444;2022-07-31T00:28:37;2.58;;;2.20;;
17943;SDS011;9097;47.028;15.444;2022-07-31T00:31:41;2.45;;;1.83;;
17943;SDS011;9097;47.028;15.444;2022-07-31T00:34:44;2.47;;;1.85;;
17943;SDS011;9097;47.028;15.444;2022-07-31T00:37:46;2.40;;;1.92;;
17943;SDS011;9097;47.028;15.444;2022-07-31T00:40:49;2.25;;;1.83;;
17943;SDS011;9097;47.028;15.444;2022-07-31T00:43:52;3.10;;;1.95;;
17943;SDS011;9097;47.028;15.444;2022-07-31T00:46:56;1.73;;;1.63;;
17943;SDS011;9097;47.028;15.444;2022-07-31T00:49:59;2.47;;;1.90;;
17943;SDS011;9097;47.028;15.444;2022-07-31T00:53:02;2.75;;;2.00;;
17943;SDS011;9097;47.028;15.444;2022-07-31T00:56:05;2.33;;;1.75;;
17943;SDS011;9097;47.028;15.444;2022-07-31T00:59:07;1.88;;;1.60;;
17943;SDS011;9097;47.028;15.444;2022-07-31T01:02:17;2.72;;;1.65;;
17943;SDS011;9097;47.028;15.444;2022-07-31T01:05:20;1.73;;;1.60;;
17943;SDS011;9097;47.028;15.444;2022-07-31T01:08:24;2.08;;;1.63;;
17943;SDS011;9097;47.028;15.444;2022-07-31T01:11:29;2.17;;;1.58;;
17943;SDS011;9097;47.028;15.444;2022-07-31T01:14:38;2.60;;;1.92;;
17943;SDS011;9097;47.028;15.444;2022-07-31T01:17:44;2.22;;;2.03;;
17943;SDS011;9097;47.028;15.444;2022-07-31T01:20:47;1.73;;;1.63;;
17943;SDS011;9097;47.028;15.444;2022-07-31T01:23:57;1.95;;;1.73;;
17943;SDS011;9097;47.028;15.444;2022-07-31T01:27:03;3.70;;;2.20;;
17943;SDS011;9097;47.028;15.444;2022-07-31T01:30:10;2.42;;;2.08;;
17943;SDS011;9097;47.028;15.444;2022-07-31T01:33:14;2.45;;;1.73;;
17943;SDS011;9097;47.028;15.444;2022-07-31T01:36:21;1.70;;;1.60;;
17943;SDS011;9097;47.028;15.444;2022-07-31T01:39:28;2.00;;;1.67;;
17943;SDS011;9097;47.028;15.444;2022-07-31T01:42:33;1.52;;;1.35;;
17943;SDS011;9097;47.028;15.444;2022-07-31T01:45:39;1.42;;;1.33;;
17943;SDS011;9097;47.028;15.444;2022-07-31T01:48:44;1.73;;;1.63;;
17943;SDS011;9097;47.028;15.444;2022-07-31T01:51:48;2.58;;;2.33;;
17943;SDS011;9097;47.028;15.444;2022-07-31T01:54:51;1.77;;;1.67;;
17943;SDS011;9097;47.028;15.444;2022-07-31T01:57:54;3.40;;;1.90;;
17943;SDS011;9097;47.028;15.444;2022-07-31T02:00:59;2.72;;;2.28;;
17943;SDS011;9097;47.028;15.444;2022-07-31T02:04:03;2.05;;;1.55;;
17943;SDS011;9097;47.028;15.444;2022-07-31T02:07:06;1.88;;;1.77;;
17943;SDS011;9097;47.028;15.444;2022-07-31T02:10:11;1.80;;;1.65;;
17943;SDS011;9097;47.028;15.444;2022-07-31T02:13:15;2.22;;;2.03;;
17943;SDS011;9097;47.028;15.444;2022-07-31T02:16:20;4.45;;;1.90;;
17943;SDS011;9097;47.028;15.444;2022-07-31T02:19:24;2.45;;;2.10;;
17943;SDS011;9097;47.028;15.444;2022-07-31T02:22:28;2.15;;;1.35;;
17943;SDS011;9097;47.028;15.444;2022-07-31T02:28:34;1.58;;;1.20;;
17943;SDS011;9097;47.028;15.444;2022-07-31T02:31:39;1.98;;;1.55;;
17943;SDS011;9097;47.028;15.444;2022-07-31T02:34:45;1.88;;;1.75;;
17943;SDS011;9097;47.028;15.444;2022-07-31T02:37:48;3.45;;;2.15;;
17943;SDS011;9097;47.028;15.444;2022-07-31T02:40:52;2.83;;;1.88;;
17943;SDS011;9097;47.028;15.444;2022-07-31T02:43:55;1.90;;;1.70;;
17943;SDS011;9097;47.028;15.444;2022-07-31T02:47:01;2.25;;;2.05;;
17943;SDS011;9097;47.028;15.444;2022-07-31T02:50:12;2.75;;;2.13;;
17943;SDS011;9097;47.028;15.444;2022-07-31T02:53:25;4.07;;;2.15;;
17943;SDS011;9097;47.028;15.444;2022-07-31T02:56:28;2.22;;;1.85;;
17943;SDS011;9097;47.028;15.444;2022-07-31T02:59:31;2.10;;;1.65;;
17943;SDS011;9097;47.028;15.444;2022-07-31T03:02:38;2.35;;;2.13;;
17943;SDS011;9097;47.028;15.444;2022-07-31T03:05:41;2.72;;;2.00;;
17943;SDS011;9097;47.028;15.444;2022-07-31T03:08:44;2.50;;;2.30;;
17943;SDS011;9097;47.028;15.444;2022-07-31T03:11:54;2.97;;;1.77;;
17943;SDS011;9097;47.028;15.444;2022-07-31T03:14:56;2.15;;;1.95;;
17943;SDS011;9097;47.028;15.444;2022-07-31T03:18:01;2.25;;;2.08;;
17943;SDS011;9097;47.028;15.444;2022-07-31T03:21:05;2.63;;;1.75;;
17943;SDS011;9097;47.028;15.444;2022-07-31T03:24:11;1.90;;;1.80;;
17943;SDS011;9097;47.028;15.444;2022-07-31T03:27:13;1.83;;;1.70;;
17943;SDS011;9097;47.028;15.444;2022-07-31T03:30:16;1.90;;;1.52;;
17943;SDS011;9097;47.028;15.444;2022-07-31T03:33:25;1.63;;;1.52;;
17943;SDS011;9097;47.028;15.444;2022-07-31T03:36:32;5.43;;;2.15;;
17943;SDS011;9097;47.028;15.444;2022-07-31T03:39:35;2.30;;;2.00;;
17943;SDS011;9097;47.028;15.444;2022-07-31T03:42:37;2.47;;;1.98;;
17943;SDS011;9097;47.028;15.444;2022-07-31T03:45:41;1.65;;;1.55;;
17943;SDS011;9097;47.028;15.444;2022-07-31T03:48:46;2.67;;;1.67;;
17943;SDS011;9097;47.028;15.444;2022-07-31T03:51:51;2.70;;;1.65;;
17943;SDS011;9097;47.028;15.444;2022-07-31T03:54:53;3.05;;;2.13;;
17943;SDS011;9097;47.028;15.444;2022-07-31T03:57:56;2.13;;;1.88;;
17943;SDS011;9097;47.028;15.444;2022-07-31T04:00:59;1.98;;;1.77;;
17943;SDS011;9097;47.028;15.444;2022-07-31T04:04:04;2.97;;;2.20;;
17943;SDS011;9097;47.028;15.444;2022-07-31T04:07:06;2.42;;;2.22;;
17943;SDS011;9097;47.028;15.444;2022-07-31T04:10:10;2.63;;;1.80;;
17943;SDS011;9097;47.028;15.444;2022-07-31T04:13:13;5.22;;;3.88;;
17943;SDS011;9097;47.028;15.444;2022-07-31T04:16:18;9.32;;;4.72;;
17943;SDS011;9097;47.028;15.444;2022-07-31T04:19:22;4.70;;;3.78;;
17943;SDS011;9097;47.028;15.444;2022-07-31T04:22:24;5.47;;;2.85;;
17943;SDS011;9097;47.028;15.444;2022-07-31T04:25:28;2.95;;;2.38;;
17943;SDS011;9097;47.028;15.444;2022-07-31T04:28:30;3.75;;;2.78;;
17943;SDS011;9097;47.028;15.444;2022-07-31T04:31:33;3.22;;;2.28;;
17943;SDS011;9097;47.028;15.444;2022-07-31T04:34:37;2.08;;;1.77;;
17943;SDS011;9097;47.028;15.444;2022-07-31T04:37:42;2.60;;;2.40;;
17943;SDS011;9097;47.028;15.444;2022-07-31T04:43:54;2.20;;;2.00;;
17943;SDS011;9097;47.028;15.444;2022-07-31T04:47:11;2.47;;;2.28;;
17943;SDS011;9097;47.028;15.444;2022-07-31T04:50:17;2.90;;;1.95;;
17943;SDS011;9097;47.028;15.444;2022-07-31T04:53:20;2.92;;;2.60;;
17943;SDS011;9097;47.028;15.444;2022-07-31T04:56:24;6.18;;;2.70;;
17943;SDS011;9097;47.028;15.444;2022-07-31T04:59:42;5.32;;;2.45;;
17943;SDS011;9097;47.028;15.444;2022-07-31T05:02:51;3.10;;;2.10;;
17943;SDS011;9097;47.028;15.444;2022-07-31T05:06:13;3.60;;;2.33;;
17943;SDS011;9097;47.028;15.444;2022-07-31T05:09:22;2.20;;;1.92;;
17943;SDS011;9097;47.028;15.444;2022-07-31T05:12:35;2.95;;;2.75;;
17943;SDS011;9097;47.028;15.444;2022-07-31T05:19:03;2.17;;;1.95;;
17943;SDS011;9097;47.028;15.444;2022-07-31T05:22:08;4.00;;;2.80;;
17943;SDS011;9097;47.028;15.444;2022-07-31T05:25:11;5.75;;;2.70;;
17943;SDS011;9097;47.028;15.444;2022-07-31T05:31:45;2.60;;;2.35;;
17943;SDS011;9097;47.028;15.444;2022-07-31T05:34:49;2.55;;;2.35;;
17943;SDS011;9097;47.028;15.444;2022-07-31T05:37:53;2.83;;;2.10;;
17943;SDS011;9097;47.028;15.444;2022-07-31T05:40:56;2.10;;;1.92;;
17943;SDS011;9097;47.028;15.444;2022-07-31T05:43:59;4.35;;;2.65;;
17943;SDS011;9097;47.028;15.444;2022-07-31T05:47:13;2.42;;;1.88;;
17943;SDS011;9097;47.028;15.444;2022-07-31T05:50:17;3.90;;;2.50;;
17943;SDS011;9097;47.028;15.444;2022-07-31T05:53:24;4.32;;;2.25;;
17943;SDS011;9097;47.028;15.444;2022-07-31T05:56:28;2.22;;;1.98;;
17943;SDS011;9097;47.028;15.444;2022-07-31T05:59:32;3.08;;;2.20;;
17943;SDS011;9097;47.028;15.444;2022-07-31T06:02:36;2.53;;;2.03;;
17943;SDS011;9097;47.028;15.444;2022-07-31T06:05:39;2.88;;;1.85;;
17943;SDS011;9097;47.028;15.444;2022-07-31T06:08:52;2.08;;;1.88;;
17943;SDS011;9097;47.028;15.444;2022-07-31T06:11:54;4.40;;;1.80;;
17943;SDS011;9097;47.028;15.444;2022-07-31T06:14:58;2.22;;;2.03;;
17943;SDS011;9097;47.028;15.444;2022-07-31T06:18:02;2.47;;;1.88;;
17943;SDS011;9097;47.028;15.444;2022-07-31T06:21:12;2.45;;;2.05;;
17943;SDS011;9097;47.028;15.444;2022-07-31T06:24:17;3.28;;;2.55;;
17943;SDS011;9097;47.028;15.444;2022-07-31T06:34:04;4.10;;;2.20;;
17943;SDS011;9097;47.028;15.444;2022-07-31T06:40:34;3.55;;;2.33;;
17943;SDS011;9097;47.028;15.444;2022-07-31T06:47:15;2.30;;;2.08;;
17943;SDS011;9097;47.028;15.444;2022-07-31T06:53:56;4.20;;;1.77;;
17943;SDS011;9097;47.028;15.444;2022-07-31T06:57:01;2.90;;;2.10;;
17943;SDS011;9097;47.028;15.444;2022-07-31T07:03:43;1.75;;;1.65;;
17943;SDS011;9097;47.028;15.444;2022-07-31T07:06:47;1.83;;;1.70;;
17943;SDS011;9097;47.028;15.444;2022-07-31T07:09:56;2.90;;;2.20;;
17943;SDS011;9097;47.028;15.444;2022-07-31T07:13:04;4.18;;;2.28;;
17943;SDS011;9097;47.028;15.444;2022-07-31T07:16:18;2.22;;;1.98;;
17943;SDS011;9097;47.028;15.444;2022-07-31T07:22:59;2.17;;;1.95;;
17943;SDS011;9097;47.028;15.444;2022-07-31T07:40:33;2.13;;;2.00;;
17943;SDS011;9097;47.028;15.444;2022-07-31T07:43:36;2.55;;;2.35;;
17943;SDS011;9097;47.028;15.444;2022-07-31T07:46:38;10.65;;;2.45;;
17943;SDS011;9097;47.028;15.444;2022-07-31T07:49:41;3.28;;;2.47;;
17943;SDS011;9097;47.028;15.444;2022-07-31T07:52:43;2.30;;;2.10;;
17943;SDS011;9097;47.028;15.444;2022-07-31T07:58:55;2.15;;;1.95;;
17943;SDS011;9097;47.028;15.444;2022-07-31T08:02:05;2.42;;;2.10;;
17943;SDS011;9097;47.028;15.444;2022-07-31T08:05:07;2.33;;;2.08;;
17943;SDS011;9097;47.028;15.444;2022-07-31T08:08:10;3.10;;;2.25;;
17943;SDS011;9097;47.028;15.444;2022-07-31T08:11:13;1.92;;;1.83;;
17943;SDS011;9097;47.028;15.444;2022-07-31T08:14:35;2.08;;;1.80;;
17943;SDS011;9097;47.028;15.444;2022-07-31T08:17:39;2.33;;;1.60;;
17943;SDS011;9097;47.028;15.444;2022-07-31T08:20:42;2.47;;;1.85;;
17943;SDS011;9097;47.028;15.444;2022-07-31T08:23:45;1.88;;;1.77;;
17943;SDS011;9097;47.028;15.444;2022-07-31T08:26:47;2.15;;;1.90;;
17943;SDS011;9097;47.028;15.444;2022-07-31T08:30:15;1.70;;;1.60;;
17943;SDS011;9097;47.028;15.444;2022-07-31T08:33:21;1.80;;;1.70;;
17943;SDS011;9097;47.028;15.444;2022-07-31T08:36:38;2.08;;;1.40;;
17943;SDS011;9097;47.028;15.444;2022-07-31T08:39:48;3.25;;;1.80;;
17943;SDS011;9097;47.028;15.444;2022-07-31T08:42:56;1.98;;;1.77;;
17943;SDS011;9097;47.028;15.444;2022-07-31T08:46:10;3.78;;;1.90;;
17943;SDS011;9097;47.028;15.444;2022-07-31T08:49:26;2.58;;;1.67;;
17943;SDS011;9097;47.028;15.444;2022-07-31T08:52:30;3.88;;;2.15;;
17943;SDS011;9097;47.028;15.444;2022-07-31T08:58:49;1.95;;;1.77;;
17943;SDS011;9097;47.028;15.444;2022-07-31T09:01:54;2.00;;;1.80;;
17943;SDS011;9097;47.028;15.444;2022-07-31T09:05:01;1.55;;;1.38;;
17943;SDS011;9097;47.028;15.444;2022-07-31T09:08:18;2.17;;;1.98;;
17943;SDS011;9097;47.028;15.444;2022-07-31T09:11:21;2.22;;;1.75;;
17943;SDS011;9097;47.028;15.444;2022-07-31T09:14:25;1.95;;;1.85;;
17943;SDS011;9097;47.028;15.444;2022-07-31T09:17:39;2.22;;;2.03;;
17943;SDS011;9097;47.028;15.444;2022-07-31T09:24:26;2.88;;;1.83;;
17943;SDS011;9097;47.028;15.444;2022-07-31T09:27:29;1.40;;;1.30;;
17943;SDS011;9097;47.028;15.444;2022-07-31T09:30:31;2.75;;;1.83;;
17943;SDS011;9097;47.028;15.444;2022-07-31T09:33:36;2.53;;;1.90;;
17943;SDS011;9097;47.028;15.444;2022-07-31T09:36:48;2.50;;;1.98;;
17943;SDS011;9097;47.028;15.444;2022-07-31T09:39:59;1.90;;;1.58;;
17943;SDS011;9097;47.028;15.444;2022-07-31T09:43:12;3.10;;;1.60;;
17943;SDS011;9097;47.028;15.444;2022-07-31T09:49:55;2.22;;;1.90;;
17943;SDS011;9097;47.028;15.444;2022-07-31T09:52:59;2.03;;;1.48;;
17943;SDS011;9097;47.028;15.444;2022-07-31T09:56:13;1.73;;;1.63;;
17943;SDS011;9097;47.028;15.444;2022-07-31T09:59:17;6.18;;;1.77;;
17943;SDS011;9097;47.028;15.444;2022-07-31T10:02:20;2.28;;;1.73;;
17943;SDS011;9097;47.028;15.444;2022-07-31T10:05:26;2.15;;;1.85;;
17943;SDS011;9097;47.028;15.444;2022-07-31T10:08:31;1.77;;;1.67;;
17943;SDS011;9097;47.028;15.444;2022-07-31T10:15:11;1.55;;;1.45;;
17943;SDS011;9097;47.028;15.444;2022-07-31T10:18:22;1.67;;;1.58;;
17943;SDS011;9097;47.028;15.444;2022-07-31T10:21:28;2.13;;;1.83;;
17943;SDS011;9097;47.028;15.444;2022-07-31T10:27:39;1.42;;;1.23;;
17943;SDS011;9097;47.028;15.444;2022-07-31T10:33:49;4.68;;;1.65;;
17943;SDS011;9097;47.028;15.444;2022-07-31T10:36:56;1.65;;;1.55;;
17943;SDS011;9097;47.028;15.444;2022-07-31T10:40:02;1.38;;;1.25;;
17943;SDS011;9097;47.028;15.444;2022-07-31T10:43:13;1.83;;;1.38;;
17943;SDS011;9097;47.028;15.444;2022-07-31T10:46:25;1.90;;;1.38;;
17943;SDS011;9097;47.028;15.444;2022-07-31T10:52:50;1.83;;;1.25;;
17943;SDS011;9097;47.028;15.444;2022-07-31T10:59:26;2.83;;;1.50;;
17943;SDS011;9097;47.028;15.444;2022-07-31T11:02:33;1.23;;;1.13;;
17943;SDS011;9097;47.028;15.444;2022-07-31T11:05:38;1.30;;;1.20;;
17943;SDS011;9097;47.028;15.444;2022-07-31T11:08:46;1.33;;;1.23;;
17943;SDS011;9097;47.028;15.444;2022-07-31T11:11:58;1.00;;;0.90;;
17943;SDS011;9097;47.028;15.444;2022-07-31T11:15:01;1.08;;;0.98;;
17943;SDS011;9097;47.028;15.444;2022-07-31T11:18:14;1.25;;;1.15;;
17943;SDS011;9097;47.028;15.444;2022-07-31T11:21:17;1.88;;;1.38;;
17943;SDS011;9097;47.028;15.444;2022-07-31T11:24:32;1.33;;;1.23;;
17943;SDS011;9097;47.028;15.444;2022-07-31T11:27:34;1.50;;;1.40;;
17943;SDS011;9097;47.028;15.444;2022-07-31T11:30:48;1.10;;;1.00;;
17943;SDS011;9097;47.028;15.444;2022-07-31T11:33:51;1.75;;;1.65;;
17943;SDS011;9097;47.028;15.444;2022-07-31T11:40:19;1.42;;;1.17;;
17943;SDS011;9097;47.028;15.444;2022-07-31T11:43:24;2.08;;;1.20;;
17943;SDS011;9097;47.028;15.444;2022-07-31T11:46:42;2.28;;;1.38;;
17943;SDS011;9097;47.028;15.444;2022-07-31T11:49:46;1.23;;;1.13;;
17943;SDS011;9097;47.028;15.444;2022-07-31T11:53:00;2.47;;;1.35;;
17943;SDS011;9097;47.028;15.444;2022-07-31T11:56:06;1.95;;;0.80;;
17943;SDS011;9097;47.028;15.444;2022-07-31T11:59:09;1.45;;;0.70;;
17943;SDS011;9097;47.028;15.444;2022-07-31T12:02:13;0.95;;;0.88;;
17943;SDS011;9097;47.028;15.444;2022-07-31T12:05:41;1.35;;;1.13;;
17943;SDS011;9097;47.028;15.444;2022-07-31T12:08:46;0.95;;;0.88;;
17943;SDS011;9097;47.028;15.444;2022-07-31T12:15:39;1.15;;;1.15;;
17943;SDS011;9097;47.028;15.444;2022-07-31T12:18:52;0.93;;;0.93;;
17943;SDS011;9097;47.028;15.444;2022-07-31T12:25:40;1.58;;;0.95;;
17943;SDS011;9097;47.028;15.444;2022-07-31T12:32:26;1.40;;;0.93;;
17943;SDS011;9097;47.028;15.444;2022-07-31T12:35:33;1.23;;;0.82;;
17943;SDS011;9097;47.028;15.444;2022-07-31T12:48:59;1.10;;;1.00;;
17943;SDS011;9097;47.028;15.444;2022-07-31T12:52:10;0.95;;;0.77;;
17943;SDS011;9097;47.028;15.444;2022-07-31T12:55:18;0.90;;;0.90;;
17943;SDS011;9097;47.028;15.444;2022-07-31T12:58:21;1.63;;;0.90;;
17943;SDS011;9097;47.028;15.444;2022-07-31T13:01:24;1.23;;;0.73;;
17943;SDS011;9097;47.028;15.444;2022-07-31T13:04:41;1.30;;;1.05;;
17943;SDS011;9097;47.028;15.444;2022-07-31T13:07:47;0.68;;;0.52;;
17943;SDS011;9097;47.028;15.444;2022-07-31T13:17:31;1.70;;;1.23;;
17943;SDS011;9097;47.028;15.444;2022-07-31T13:20:35;2.30;;;1.00;;
17943;SDS011;9097;47.028;15.444;2022-07-31T13:27:20;1.30;;;1.20;;
17943;SDS011;9097;47.028;15.444;2022-07-31T13:34:01;0.80;;;0.80;;
17943;SDS011;9097;47.028;15.444;2022-07-31T13:40:43;0.60;;;0.55;;
17943;SDS011;9097;47.028;15.444;2022-07-31T13:44:05;0.75;;;0.73;;
17943;SDS011;9097;47.028;15.444;2022-07-31T13:47:08;1.30;;;1.08;;
17943;SDS011;9097;47.028;15.444;2022-07-31T13:53:53;0.57;;;0.50;;
17943;SDS011;9097;47.028;15.444;2022-07-31T14:00:25;1.38;;;1.10;;
17943;SDS011;9097;47.028;15.444;2022-07-31T14:03:28;0.90;;;0.90;;
17943;SDS011;9097;47.028;15.444;2022-07-31T14:06:38;1.98;;;0.90;;
17943;SDS011;9097;47.028;15.444;2022-07-31T14:13:28;0.80;;;0.80;;
17943;SDS011;9097;47.028;15.444;2022-07-31T14:16:40;1.15;;;1.05;;
17943;SDS011;9097;47.028;15.444;2022-07-31T14:19:49;1.08;;;0.90;;
17943;SDS011;9097;47.028;15.444;2022-07-31T14:22:54;1.48;;;1.10;;
17943;SDS011;9097;47.028;15.444;2022-07-31T14:26:02;1.10;;;1.00;;
17943;SDS011;9097;47.028;15.444;2022-07-31T14:29:17;1.05;;;0.90;;
17943;SDS011;9097;47.028;15.444;2022-07-31T14:32:30;1.75;;;1.05;;
17943;SDS011;9097;47.028;15.444;2022-07-31T14:39:11;1.45;;;0.90;;
17943;SDS011;9097;47.028;15.444;2022-07-31T14:45:56;0.65;;;0.63;;
17943;SDS011;9097;47.028;15.444;2022-07-31T14:49:09;1.50;;;0.98;;
17943;SDS011;9097;47.028;15.444;2022-07-31T14:52:14;1.02;;;0.90;;
17943;SDS011;9097;47.028;15.444;2022-07-31T14:55:18;1.13;;;0.98;;
17943;SDS011;9097;47.028;15.444;2022-07-31T14:58:22;1.20;;;1.00;;
17943;SDS011;9097;47.028;15.444;2022-07-31T15:01:25;2.13;;;1.00;;
17943;SDS011;9097;47.028;15.444;2022-07-31T15:04:43;1.48;;;1.30;;
17943;SDS011;9097;47.028;15.444;2022-07-31T15:07:59;2.70;;;1.00;;
17943;SDS011;9097;47.028;15.444;2022-07-31T15:11:08;1.10;;;1.00;;
17943;SDS011;9097;47.028;15.444;2022-07-31T15:14:11;1.00;;;0.90;;
17943;SDS011;9097;47.028;15.444;2022-07-31T15:17:13;1.48;;;1.25;;
17943;SDS011;9097;47.028;15.444;2022-07-31T15:20:18;1.08;;;1.02;;
17943;SDS011;9097;47.028;15.444;2022-07-31T15:23:32;1.15;;;1.02;;
17943;SDS011;9097;47.028;15.444;2022-07-31T15:26:37;1.55;;;0.65;;
17943;SDS011;9097;47.028;15.444;2022-07-31T15:29:40;2.25;;;1.10;;
17943;SDS011;9097;47.028;15.444;2022-07-31T15:36:11;1.05;;;1.05;;
17943;SDS011;9097;47.028;15.444;2022-07-31T15:39:14;1.55;;;1.45;;
17943;SDS011;9097;47.028;15.444;2022-07-31T15:42:19;2.20;;;2.00;;
17943;SDS011;9097;47.028;15.444;2022-07-31T15:45:22;0.95;;;0.90;;
17943;SDS011;9097;47.028;15.444;2022-07-31T15:51:34;2.15;;;1.38;;
17943;SDS011;9097;47.028;15.444;2022-07-31T15:54:38;1.75;;;1.50;;
17943;SDS011;9097;47.028;15.444;2022-07-31T16:01:20;1.40;;;1.30;;
17943;SDS011;9097;47.028;15.444;2022-07-31T16:04:22;1.13;;;1.05;;
17943;SDS011;9097;47.028;15.444;2022-07-31T16:07:28;1.30;;;1.20;;
17943;SDS011;9097;47.028;15.444;2022-07-31T16:13:44;1.45;;;1.13;;
17943;SDS011;9097;47.028;15.444;2022-07-31T16:20:16;1.27;;;1.15;;
17943;SDS011;9097;47.028;15.444;2022-07-31T16:48:12;1.38;;;1.10;;
17943;SDS011;9097;47.028;15.444;2022-07-31T16:51:16;1.60;;;1.50;;
17943;SDS011;9097;47.028;15.444;2022-07-31T17:01:26;1.30;;;1.20;;
17943;SDS011;9097;47.028;15.444;2022-07-31T17:18:55;2.20;;;1.60;;
17943;SDS011;9097;47.028;15.444;2022-07-31T17:25:37;2.30;;;1.10;;
17943;SDS011;9097;47.028;15.444;2022-07-31T17:28:39;72.13;;;37.13;;
17943;SDS011;9097;47.028;15.444;2022-07-31T17:35:22;187.90;;;97.57;;
17943;SDS011;9097;47.028;15.444;2022-07-31T17:45:32;242.05;;;126.45;;
17943;SDS011;9097;47.028;15.444;2022-07-31T17:55:32;370.52;;;183.65;;
17943;SDS011;9097;47.028;15.444;2022-07-31T18:02:14;87.55;;;46.22;;
17943;SDS011;9097;47.028;15.444;2022-07-31T18:16:07;31.70;;;16.95;;
17943;SDS011;9097;47.028;15.444;2022-07-31T18:19:11;21.85;;;11.50;;
17943;SDS011;9097;47.028;15.444;2022-07-31T18:25:41;32.85;;;17.38;;
17943;SDS011;9097;47.028;15.444;2022-07-31T18:28:51;17.65;;;10.40;;
17943;SDS011;9097;47.028;15.444;2022-07-31T18:32:01;6.65;;;4.05;;
17943;SDS011;9097;47.028;15.444;2022-07-31T18:35:15;7.18;;;4.32;;
17943;SDS011;9097;47.028;15.444;2022-07-31T18:38:17;5.68;;;4.40;;
17943;SDS011;9097;47.028;15.444;2022-07-31T18:41:24;4.55;;;2.85;;
17943;SDS011;9097;47.028;15.444;2022-07-31T18:50:43;2.30;;;1.90;;
17943;SDS011;9097;47.028;15.444;2022-07-31T18:53:55;2.33;;;1.90;;
17943;SDS011;9097;47.028;15.444;2022-07-31T18:56:57;2.15;;;1.95;;
17943;SDS011;9097;47.028;15.444;2022-07-31T19:00:01;1.60;;;1.50;;
17943;SDS011;9097;47.028;15.444;2022-07-31T19:03:04;3.33;;;2.17;;
17943;SDS011;9097;47.028;15.444;2022-07-31T19:06:10;3.75;;;2.50;;
17943;SDS011;9097;47.028;15.444;2022-07-31T19:09:14;2.88;;;2.40;;
17943;SDS011;9097;47.028;15.444;2022-07-31T19:12:18;4.55;;;2.92;;
17943;SDS011;9097;47.028;15.444;2022-07-31T19:15:21;2.45;;;2.25;;
17943;SDS011;9097;47.028;15.444;2022-07-31T19:18:24;4.28;;;2.28;;
17943;SDS011;9097;47.028;15.444;2022-07-31T19:21:28;2.45;;;1.85;;
17943;SDS011;9097;47.028;15.444;2022-07-31T19:24:32;2.42;;;1.85;;
17943;SDS011;9097;47.028;15.444;2022-07-31T19:30:43;5.80;;;2.55;;
17943;SDS011;9097;47.028;15.444;2022-07-31T19:33:47;2.05;;;1.75;;
17943;SDS011;9097;47.028;15.444;2022-07-31T19:36:53;2.80;;;1.88;;
17943;SDS011;9097;47.028;15.444;2022-07-31T19:39:56;4.93;;;2.40;;
17943;SDS011;9097;47.028;15.444;2022-07-31T19:43:00;2.00;;;1.85;;
17943;SDS011;9097;47.028;15.444;2022-07-31T19:46:03;2.10;;;1.67;;
17943;SDS011;9097;47.028;15.444;2022-07-31T19:49:07;2.42;;;2.05;;
17943;SDS011;9097;47.028;15.444;2022-07-31T19:52:11;2.85;;;2.17;;
17943;SDS011;9097;47.028;15.444;2022-07-31T19:55:14;3.15;;;2.08;;
17943;SDS011;9097;47.028;15.444;2022-07-31T19:58:26;2.78;;;2.30;;
17943;SDS011;9097;47.028;15.444;2022-07-31T20:01:29;3.10;;;2.10;;
17943;SDS011;9097;47.028;15.444;2022-07-31T20:04:31;2.40;;;2.08;;
17943;SDS011;9097;47.028;15.444;2022-07-31T20:07:48;4.45;;;2.28;;
17943;SDS011;9097;47.028;15.444;2022-07-31T20:10:53;2.25;;;1.88;;
17943;SDS011;9097;47.028;15.444;2022-07-31T20:13:59;2.92;;;2.63;;
17943;SDS011;9097;47.028;15.444;2022-07-31T20:17:17;2.65;;;2.38;;
17943;SDS011;9097;47.028;15.444;2022-07-31T20:20:32;4.07;;;2.67;;
17943;SDS011;9097;47.028;15.444;2022-07-31T20:23:36;4.25;;;2.67;;
17943;SDS011;9097;47.028;15.444;2022-07-31T20:26:51;3.35;;;2.67;;
17943;SDS011;9097;47.028;15.444;2022-07-31T20:29:54;2.90;;;2.55;;
17943;SDS011;9097;47.028;15.444;2022-07-31T20:32:58;2.75;;;2.03;;
17943;SDS011;9097;47.028;15.444;2022-07-31T20:36:00;3.60;;;2.35;;
17943;SDS011;9097;47.028;15.444;2022-07-31T20:39:04;2.50;;;2.10;;
17943;SDS011;9097;47.028;15.444;2022-07-31T20:42:08;2.17;;;1.98;;
17943;SDS011;9097;47.028;15.444;2022-07-31T20:48:37;2.45;;;2.20;;
17943;SDS011;9097;47.028;15.444;2022-07-31T20:51:55;2.30;;;2.10;;
17943;SDS011;9097;47.028;15.444;2022-07-31T20:58:07;2.25;;;2.05;;
17943;SDS011;9097;47.028;15.444;2022-07-31T21:01:10;2.75;;;2.47;;
17943;SDS011;9097;47.028;15.444;2022-07-31T21:04:15;2.40;;;2.08;;
17943;SDS011;9097;47.028;15.444;2022-07-31T21:07:18;2.13;;;1.55;;
17943;SDS011;9097;47.028;15.444;2022-07-31T21:10:21;4.22;;;2.15;;
17943;SDS011;9097;47.028;15.444;2022-07-31T21:13:27;2.60;;;2.20;;
17943;SDS011;9097;47.028;15.444;2022-07-31T21:16:35;2.88;;;1.88;;
17943;SDS011;9097;47.028;15.444;2022-07-31T21:19:40;2.60;;;2.38;;
17943;SDS011;9097;47.028;15.444;2022-07-31T21:22:46;2.20;;;2.00;;
17943;SDS011;9097;47.028;15.444;2022-07-31T21:25:50;2.25;;;2.05;;
17943;SDS011;9097;47.028;15.444;2022-07-31T21:28:56;2.40;;;2.20;;
17943;SDS011;9097;47.028;15.444;2022-07-31T21:32:01;3.10;;;2.45;;
17943;SDS011;9097;47.028;15.444;2022-07-31T21:35:05;2.72;;;2.53;;
17943;SDS011;9097;47.028;15.444;2022-07-31T21:38:08;2.72;;;2.28;;
17943;SDS011;9097;47.028;15.444;2022-07-31T21:41:11;2.78;;;1.80;;
17943;SDS011;9097;47.028;15.444;2022-07-31T21:44:17;3.47;;;2.47;;
17943;SDS011;9097;47.028;15.444;2022-07-31T21:47:20;2.63;;;2.00;;
17943;SDS011;9097;47.028;15.444;2022-07-31T21:50:26;3.55;;;2.35;;
17943;SDS011;9097;47.028;15.444;2022-07-31T21:53:29;2.88;;;2.30;;
17943;SDS011;9097;47.028;15.444;2022-07-31T21:56:42;3.85;;;2.78;;
17943;SDS011;9097;47.028;15.444;2022-07-31T21:59:51;2.47;;;2.28;;
17943;SDS011;9097;47.028;15.444;2022-07-31T22:02:54;2.88;;;2.30;;
17943;SDS011;9097;47.028;15.444;2022-07-31T22:06:00;2.38;;;1.88;;
17943;SDS011;9097;47.028;15.444;2022-07-31T22:09:20;3.47;;;2.05;;
17943;SDS011;9097;47.028;15.444;2022-07-31T22:12:24;2.55;;;2.33;;
17943;SDS011;9097;47.028;15.444;2022-07-31T22:15:28;2.40;;;2.20;;
17943;SDS011;9097;47.028;15.444;2022-07-31T22:18:31;2.50;;;2.30;;
17943;SDS011;9097;47.028;15.444;2022-07-31T22:21:35;2.75;;;2.40;;
17943;SDS011;9097;47.028;15.444;2022-07-31T22:24:39;3.30;;;2.38;;
17943;SDS011;9097;47.028;15.444;2022-07-31T22:27:42;2.92;;;2.33;;
17943;SDS011;9097;47.028;15.444;2022-07-31T22:30:57;2.35;;;2.00;;
17943;SDS011;9097;47.028;15.444;2022-07-31T22:34:01;3.38;;;2.10;;
17943;SDS011;9097;47.028;15.444;2022-07-31T22:37:05;2.10;;;1.90;;
17943;SDS011;9097;47.028;15.444;2022-07-31T22:40:09;2.47;;;2.17;;
17943;SDS011;9097;47.028;15.444;2022-07-31T22:43:13;2.70;;;2.50;;
17943;SDS011;9097;47.028;15.444;2022-07-31T22:46:18;4.03;;;2.50;;
17943;SDS011;9097;47.028;15.444;2022-07-31T22:49:22;2.83;;;2.40;;
17943;SDS011;9097;47.028;15.444;2022-07-31T22:52:24;2.92;;;2.38;;
17943;SDS011;9097;47.028;15.444;2022-07-31T22:55:28;2.45;;;2.25;;
17943;SDS011;9097;47.028;15.444;2022-07-31T22:58:32;2.53;;;2.33;;
17943;SDS011;9097;47.028;15.444;2022-07-31T23:01:36;2.42;;;2.22;;